createdAt,value
2023-06-19T00:01:10.402Z,97753.28
2023-06-19T00:03:37.499Z,97747.81
2023-06-19T00:06:04.654Z,97754.03
2023-06-19T00:08:31.858Z,97749.56
2023-06-19T00:10:59.364Z,97748.28
2023-06-19T00:13:26.391Z,97760.06
2023-06-19T00:15:53.609Z,97756.25
2023-06-19T00:18:21.054Z,97755.84
2023-06-19T00:20:48.546Z,97760.56
2023-06-19T00:23:18.078Z,97757.75
2023-06-19T00:25:45.801Z,97750.53
2023-06-19T00:28:15.830Z,97757.47
2023-06-19T00:30:43.396Z,97762.22
2023-06-19T00:33:10.675Z,97761.19
2023-06-19T00:35:37.804Z,97770.19
2023-06-19T00:38:06.766Z,97762.34
2023-06-19T00:40:35.166Z,97772.94
2023-06-19T00:43:02.906Z,97771.56
2023-06-19T00:45:30.260Z,97772.66
2023-06-19T00:47:59.151Z,97769.78
2023-06-19T00:50:28.994Z,97775.56
2023-06-19T00:52:56.151Z,97784.63
2023-06-19T00:55:23.586Z,97784.81
2023-06-19T00:57:51.980Z,97780.44
2023-06-19T01:00:19.324Z,97786.28
2023-06-19T01:02:48.625Z,97782.44
2023-06-19T01:05:16.232Z,97787.75
2023-06-19T01:08:00.602Z,97789.16
2023-06-19T01:10:37.798Z,97792.72
2023-06-19T01:13:33.970Z,97792.72
2023-06-19T01:16:04.806Z,97786.94
2023-06-19T01:18:33.135Z,97776.38
2023-06-19T01:21:19.047Z,97790.97
2023-06-19T01:23:46.635Z,97791.94
2023-06-19T01:26:14.065Z,97798.69
2023-06-19T01:28:43.842Z,97821.47
2023-06-19T01:31:22.283Z,97829.16
2023-06-19T01:33:51.535Z,97854.66
2023-06-19T01:36:20.498Z,97872.88
2023-06-19T01:38:49.611Z,97877.50
2023-06-19T01:41:18.353Z,97886.53
2023-06-19T01:43:46.872Z,97875.56
2023-06-19T01:46:13.871Z,97880.66
2023-06-19T01:48:41.145Z,97885.56
2023-06-19T01:51:08.498Z,97880.63
2023-06-19T01:53:35.996Z,97886.63
2023-06-19T01:56:03.652Z,97888.44
2023-06-19T01:58:30.993Z,97890.69
2023-06-19T02:00:57.980Z,97885.34
2023-06-19T02:03:25.099Z,97883.31
2023-06-19T02:05:53.778Z,97880.28
2023-06-19T02:08:21.048Z,97884.56
2023-06-19T02:10:48.118Z,97886.50
2023-06-19T02:13:15.144Z,97897.81
2023-06-19T02:15:42.714Z,97890.38
2023-06-19T02:18:10.072Z,97896.03
2023-06-19T02:20:37.110Z,97906.59
2023-06-19T02:23:04.114Z,97895.78
2023-06-19T02:25:31.128Z,97903.88
2023-06-19T02:27:58.163Z,97889.03
2023-06-19T02:30:25.471Z,97894.03
2023-06-19T02:32:52.693Z,97888.44
2023-06-19T02:35:20.813Z,97891.88
2023-06-19T02:37:48.256Z,97882.94
2023-06-19T02:40:15.458Z,97889.53
2023-06-19T02:42:42.770Z,97883.59
2023-06-19T02:45:10.211Z,97888.72
2023-06-19T02:47:37.407Z,97890.94
2023-06-19T02:50:06.764Z,97892.06
2023-06-19T02:52:33.742Z,97883.78
2023-06-19T02:55:00.912Z,97878.88
2023-06-19T02:57:27.929Z,97882.66
2023-06-19T02:59:55.494Z,97881.34
2023-06-19T03:02:22.717Z,97875.72
2023-06-19T03:04:50.698Z,97884.53
2023-06-19T03:07:18.178Z,97889.84
2023-06-19T03:09:45.228Z,97890.66
2023-06-19T03:12:12.325Z,97890.25
2023-06-19T03:14:39.405Z,97895.03
2023-06-19T03:17:07.011Z,97886.69
2023-06-19T03:19:35.357Z,97889.28
2023-06-19T03:22:02.694Z,97889.78
2023-06-19T03:24:29.820Z,97887.59
2023-06-19T03:27:10.199Z,97901.34
2023-06-19T03:29:37.211Z,97900.50
2023-06-19T03:32:07.796Z,97905.22
2023-06-19T03:34:36.080Z,97902.50
2023-06-19T03:37:07.474Z,97917.84
2023-06-19T03:39:35.562Z,97919.09
2023-06-19T03:42:07.335Z,97915.88
2023-06-19T03:44:35.288Z,97920.31
2023-06-19T03:47:02.308Z,97927.41
2023-06-19T03:49:29.557Z,97925.81
2023-06-19T03:51:56.895Z,97925.03
2023-06-19T03:54:24.710Z,97930.84
2023-06-19T03:56:52.308Z,97924.69
2023-06-19T03:59:19.324Z,97932.91
2023-06-19T04:01:46.424Z,97942.34
2023-06-19T04:04:13.457Z,97940.31
2023-06-19T04:06:40.478Z,97943.19
2023-06-19T04:09:07.684Z,97953.69
2023-06-19T04:11:34.843Z,97952.78
2023-06-19T04:14:02.851Z,97955.78
2023-06-19T04:16:30.831Z,97953.03
2023-06-19T04:18:57.840Z,97956.56
2023-06-19T04:21:25.636Z,97950.63
2023-06-19T04:23:52.743Z,97956.28
2023-06-19T04:26:20.079Z,97961.78
2023-06-19T04:28:47.277Z,97967.06
2023-06-19T04:31:19.056Z,97965.56
2023-06-19T04:33:47.068Z,97968.59
2023-06-19T04:36:15.310Z,97967.19
2023-06-19T04:38:43.142Z,97970.25
2023-06-19T04:41:10.281Z,97965.84
2023-06-19T04:43:37.306Z,97973.91
2023-06-19T04:46:05.123Z,97975.19
2023-06-19T04:48:32.544Z,97980.06
2023-06-19T04:51:01.729Z,97985.09
2023-06-19T04:53:28.991Z,97978.16
2023-06-19T04:55:56.377Z,97982.63
2023-06-19T04:58:23.610Z,97977.41
2023-06-19T05:00:53.745Z,97981.66
2023-06-19T05:03:20.845Z,97987.59
2023-06-19T05:05:48.234Z,97993.66
2023-06-19T05:08:15.421Z,97986.31
2023-06-19T05:10:44.346Z,97980.75
2023-06-19T05:13:13.340Z,97982.16
2023-06-19T05:15:40.332Z,97979.34
2023-06-19T05:18:07.668Z,97984.97
2023-06-19T05:20:34.703Z,97983.22
2023-06-19T05:23:01.800Z,97986.19
2023-06-19T05:25:28.922Z,97987.16
2023-06-19T05:27:56.068Z,97988.00
2023-06-19T05:30:23.600Z,97986.50
2023-06-19T05:32:50.806Z,97990.72
2023-06-19T05:35:17.776Z,97997.25
2023-06-19T05:37:45.114Z,97995.81
2023-06-19T05:40:12.414Z,98001.97
2023-06-19T05:42:39.871Z,98000.25
2023-06-19T05:45:07.758Z,98007.94
2023-06-19T05:47:34.981Z,98001.28
2023-06-19T05:50:01.976Z,98010.47
2023-06-19T05:52:29.011Z,98000.69
2023-06-19T05:54:56.172Z,98002.59
2023-06-19T05:57:23.224Z,98001.84
2023-06-19T05:59:53.958Z,98005.69
2023-06-19T06:02:21.616Z,98013.88
2023-06-19T06:04:48.812Z,98010.47
2023-06-19T06:07:15.864Z,98013.81
2023-06-19T06:09:42.954Z,98012.19
2023-06-19T06:12:10.216Z,98011.88
2023-06-19T06:14:37.230Z,98021.94
2023-06-19T06:17:06.451Z,98025.63
2023-06-19T06:19:33.553Z,98022.16
2023-06-19T06:22:00.554Z,98012.91
2023-06-19T06:24:27.808Z,98020.22
2023-06-19T06:26:54.957Z,98018.91
2023-06-19T06:29:22.392Z,98012.09
2023-06-19T06:31:49.413Z,98019.72
2023-06-19T06:34:16.630Z,98025.63
2023-06-19T06:36:52.769Z,98026.97
2023-06-19T06:39:28.583Z,98019.63
2023-06-19T06:41:55.742Z,98034.63
2023-06-19T06:44:23.545Z,98036.56
2023-06-19T06:46:52.935Z,98045.03
2023-06-19T06:49:20.104Z,98039.56
2023-06-19T06:51:47.699Z,98042.69
2023-06-19T06:54:14.798Z,98045.19
2023-06-19T06:56:41.798Z,98045.59
2023-06-19T06:59:08.758Z,98053.88
2023-06-19T07:01:35.742Z,98053.63
2023-06-19T07:04:02.766Z,98060.38
2023-06-19T07:06:29.739Z,98071.94
2023-06-19T07:08:56.708Z,98063.63
2023-06-19T07:11:23.656Z,98050.66
2023-06-19T07:13:50.859Z,98051.16
2023-06-19T07:16:17.821Z,98056.56
2023-06-19T07:18:44.894Z,98051.84
2023-06-19T07:21:16.194Z,98060.38
2023-06-19T07:23:46.678Z,98057.69
2023-06-19T07:26:14.122Z,98059.13
2023-06-19T07:28:42.007Z,98064.22
2023-06-19T07:31:09.201Z,98071.94
2023-06-19T07:33:36.332Z,98071.69
2023-06-19T07:36:03.905Z,98060.69
2023-06-19T07:38:31.022Z,98060.09
2023-06-19T07:40:58.095Z,98058.78
2023-06-19T07:43:25.099Z,98056.03
2023-06-19T07:45:52.336Z,98058.97
2023-06-19T07:48:19.446Z,98045.88
2023-06-19T07:50:47.151Z,98054.91
2023-06-19T07:53:14.144Z,98049.16
2023-06-19T07:55:42.307Z,98065.66
2023-06-19T07:58:09.300Z,98062.72
2023-06-19T08:00:36.702Z,98064.75
2023-06-19T08:03:05.647Z,98066.75
2023-06-19T08:05:32.876Z,98078.81
2023-06-19T08:08:00.926Z,98075.19
2023-06-19T08:10:28.126Z,98069.25
2023-06-19T08:12:55.343Z,98080.72
2023-06-19T08:15:22.476Z,98079.84
2023-06-19T08:17:49.832Z,98079.53
2023-06-19T08:20:16.988Z,98081.06
2023-06-19T08:22:43.960Z,98077.09
2023-06-19T08:25:11.012Z,98070.38
2023-06-19T08:27:38.128Z,98063.34
2023-06-19T08:30:05.872Z,98068.72
2023-06-19T08:32:33.145Z,98069.16
2023-06-19T08:35:00.139Z,98065.63
2023-06-19T08:37:27.165Z,98066.72
2023-06-19T08:39:54.207Z,98071.69
2023-06-19T08:42:21.196Z,98067.34
2023-06-19T08:44:48.369Z,98070.72
2023-06-19T08:47:15.513Z,98071.56
2023-06-19T08:49:43.568Z,98058.63
2023-06-19T08:52:10.541Z,98053.44
2023-06-19T08:54:45.113Z,98060.16
2023-06-19T08:57:15.905Z,98058.03
2023-06-19T08:59:51.244Z,98044.13
2023-06-19T09:02:18.742Z,98052.84
2023-06-19T09:04:45.777Z,98052.47
2023-06-19T09:07:15.441Z,98039.44
2023-06-19T09:09:47.990Z,98044.81
2023-06-19T09:12:16.254Z,98041.59
2023-06-19T09:14:46.981Z,98042.69
2023-06-19T09:17:20.445Z,98054.09
2023-06-19T09:19:52.537Z,98055.22
2023-06-19T09:22:22.258Z,98045.75
2023-06-19T09:24:52.993Z,98042.06
2023-06-19T09:27:20.900Z,98055.72
2023-06-19T09:29:50.594Z,98051.09
2023-06-19T09:32:29.723Z,98036.88
2023-06-19T09:35:01.794Z,98042.53
2023-06-19T09:37:31.263Z,98044.19
2023-06-19T09:40:11.261Z,98030.59
2023-06-19T09:42:43.805Z,98035.53
2023-06-19T09:45:27.626Z,98034.19
2023-06-19T09:47:57.955Z,98043.13
2023-06-19T09:50:40.088Z,98038.81
2023-06-19T09:53:07.357Z,98046.19
2023-06-19T09:55:35.531Z,98038.06
2023-06-19T09:58:04.004Z,98042.06
2023-06-19T10:00:33.350Z,98042.72
2023-06-19T10:03:01.592Z,98044.53
2023-06-19T10:05:33.081Z,98038.34
2023-06-19T10:08:02.143Z,98042.59
2023-06-19T10:10:33.178Z,98031.94
2023-06-19T10:13:21.235Z,98040.06
2023-06-19T10:15:49.232Z,98033.00
2023-06-19T10:18:19.251Z,98038.19
2023-06-19T10:20:47.762Z,98031.72
2023-06-19T10:23:23.340Z,98028.03
2023-06-19T10:25:59.964Z,98030.94
2023-06-19T10:28:31.870Z,98039.59
2023-06-19T10:31:01.775Z,98028.69
2023-06-19T10:33:33.127Z,98032.41
2023-06-19T10:36:01.377Z,98033.75
2023-06-19T10:38:28.874Z,98035.78
2023-06-19T10:40:55.872Z,98032.22
2023-06-19T10:43:26.267Z,98029.50
2023-06-19T10:45:53.598Z,98023.03
2023-06-19T10:48:25.676Z,98020.69
2023-06-19T10:50:53.169Z,98026.13
2023-06-19T10:53:31.110Z,98013.25
2023-06-19T10:56:00.659Z,98007.97
2023-06-19T10:58:29.484Z,98001.22
2023-06-19T11:00:58.021Z,98001.88
2023-06-19T11:03:25.390Z,98001.44
2023-06-19T11:05:52.880Z,97999.41
2023-06-19T11:08:22.497Z,97998.09
2023-06-19T11:10:50.980Z,98006.81
2023-06-19T11:13:22.124Z,98002.84
2023-06-19T11:15:53.166Z,98009.31
2023-06-19T11:18:20.814Z,98004.72
2023-06-19T11:20:51.930Z,97999.56
2023-06-19T11:23:30.088Z,98002.25
2023-06-19T11:26:05.702Z,98005.78
2023-06-19T11:28:33.166Z,97988.53
2023-06-19T11:31:04.795Z,97996.25
2023-06-19T11:33:31.962Z,97998.75
2023-06-19T11:36:02.694Z,97988.41
2023-06-19T11:38:30.548Z,98000.69
2023-06-19T11:40:58.219Z,97992.00
2023-06-19T11:43:32.703Z,98002.31
2023-06-19T11:46:08.880Z,97995.84
2023-06-19T11:48:40.108Z,97987.25
2023-06-19T11:51:07.207Z,97999.50
2023-06-19T11:53:35.583Z,97989.41
2023-06-19T11:56:02.996Z,97987.34
2023-06-19T11:58:30.196Z,97985.88
2023-06-19T12:00:57.617Z,97976.03
2023-06-19T12:03:24.995Z,97978.28
2023-06-19T12:05:52.366Z,97976.69
2023-06-19T12:08:19.590Z,97982.41
2023-06-19T12:10:46.588Z,97972.00
2023-06-19T12:13:13.603Z,97978.09
2023-06-19T12:15:40.750Z,97970.78
2023-06-19T12:18:08.991Z,97970.25
2023-06-19T12:20:36.222Z,97969.78
2023-06-19T12:23:03.925Z,97967.44
2023-06-19T12:25:31.298Z,97967.84
2023-06-19T12:27:58.260Z,97964.91
2023-06-19T12:30:26.520Z,97963.53
2023-06-19T12:32:54.008Z,97965.78
2023-06-19T12:35:21.846Z,97966.25
2023-06-19T12:37:48.943Z,97966.66
2023-06-19T12:40:16.260Z,97964.38
2023-06-19T12:42:44.525Z,97969.06
2023-06-19T12:45:11.841Z,97969.91
2023-06-19T12:47:39.250Z,97964.78
2023-06-19T12:50:06.933Z,97965.41
2023-06-19T12:52:33.926Z,97961.84
2023-06-19T12:55:02.341Z,97957.41
2023-06-19T12:57:29.417Z,97954.63
2023-06-19T12:59:56.421Z,97959.44
2023-06-19T13:02:24.208Z,97961.78
2023-06-19T13:04:51.460Z,97957.28
2023-06-19T13:07:18.508Z,97959.91
2023-06-19T13:09:45.480Z,97951.06
2023-06-19T13:12:12.507Z,97950.78
2023-06-19T13:14:39.574Z,97949.06
2023-06-19T13:17:07.315Z,97951.91
2023-06-19T13:19:35.219Z,97950.44
2023-06-19T13:22:02.392Z,97942.09
2023-06-19T13:24:29.461Z,97946.22
2023-06-19T13:26:56.491Z,97941.09
2023-06-19T13:29:23.653Z,97934.38
2023-06-19T13:31:50.678Z,97940.94
2023-06-19T13:34:19.640Z,97930.09
2023-06-19T13:36:46.643Z,97932.50
2023-06-19T13:39:13.680Z,97933.97
2023-06-19T13:41:40.944Z,97917.44
2023-06-19T13:44:08.475Z,97914.63
2023-06-19T13:46:35.599Z,97912.38
2023-06-19T13:49:02.674Z,97901.66
2023-06-19T13:51:29.849Z,97901.31
2023-06-19T13:53:56.973Z,97896.50
2023-06-19T13:56:27.098Z,97900.41
2023-06-19T13:58:54.137Z,97897.13
2023-06-19T14:01:21.205Z,97884.16
2023-06-19T14:03:48.353Z,97889.13
2023-06-19T14:06:15.421Z,97890.56
2023-06-19T14:08:44.161Z,97884.88
2023-06-19T14:11:11.192Z,97876.34
2023-06-19T14:13:38.507Z,97886.53
2023-06-19T14:16:05.500Z,97888.06
2023-06-19T14:18:32.568Z,97880.59
2023-06-19T14:20:59.649Z,97882.81
2023-06-19T14:23:26.686Z,97879.84
2023-06-19T14:25:53.941Z,97879.38
2023-06-19T14:28:21.196Z,97875.28
2023-06-19T14:30:48.401Z,97870.13
2023-06-19T14:33:18.450Z,97870.69
2023-06-19T14:35:47.107Z,97862.84
2023-06-19T14:38:15.384Z,97857.72
2023-06-19T14:40:45.841Z,97860.53
2023-06-19T14:43:12.921Z,97854.81
2023-06-19T14:45:41.268Z,97857.22
2023-06-19T14:48:08.501Z,97853.19
2023-06-19T14:50:36.602Z,97852.88
2023-06-19T14:53:03.718Z,97849.41
2023-06-19T14:55:30.993Z,97847.09
2023-06-19T14:57:58.338Z,97850.25
2023-06-19T15:00:26.084Z,97837.84
2023-06-19T15:02:53.448Z,97849.03
2023-06-19T15:05:20.685Z,97845.50
2023-06-19T15:07:47.946Z,97837.56
2023-06-19T15:10:15.125Z,97832.81
2023-06-19T15:12:42.130Z,97829.41
2023-06-19T15:15:09.803Z,97829.47
2023-06-19T15:17:36.771Z,97828.50
2023-06-19T15:20:05.265Z,97824.66
2023-06-19T15:22:32.300Z,97819.19
2023-06-19T15:24:59.342Z,97817.56
2023-06-19T15:27:26.425Z,97818.56
2023-06-19T15:29:53.388Z,97816.53
2023-06-19T15:32:20.462Z,97812.97
2023-06-19T15:34:47.572Z,97816.00
2023-06-19T15:37:14.699Z,97814.50
2023-06-19T15:39:43.107Z,97804.06
2023-06-19T15:42:10.615Z,97800.88
2023-06-19T15:44:37.844Z,97804.03
2023-06-19T15:47:05.009Z,97805.97
2023-06-19T15:49:31.978Z,97805.00
2023-06-19T15:51:59.034Z,97806.97
2023-06-19T15:54:26.350Z,97811.13
2023-06-19T15:56:53.328Z,97801.66
2023-06-19T15:59:20.460Z,97811.06
2023-06-19T16:01:47.784Z,97817.09
2023-06-19T16:04:15.349Z,97823.81
2023-06-19T16:06:42.728Z,97817.91
2023-06-19T16:09:09.781Z,97825.06
2023-06-19T16:11:37.072Z,97821.59
2023-06-19T16:14:04.050Z,97826.63
2023-06-19T16:16:31.469Z,97829.44
2023-06-19T16:18:58.556Z,97824.31
2023-06-19T16:21:28.911Z,97823.75
2023-06-19T16:23:56.033Z,97823.03
2023-06-19T16:26:23.346Z,97815.31
2023-06-19T16:28:51.973Z,97798.53
2023-06-19T16:31:19.281Z,97805.81
2023-06-19T16:33:46.994Z,97800.06
2023-06-19T16:36:14.269Z,97805.34
2023-06-19T16:38:41.610Z,97802.63
2023-06-19T16:41:08.699Z,97806.06
2023-06-19T16:43:35.843Z,97809.00
2023-06-19T16:46:03.148Z,97811.97
2023-06-19T16:48:30.391Z,97811.66
2023-06-19T16:50:57.413Z,97811.94
2023-06-19T16:53:24.523Z,97821.53
2023-06-19T16:55:51.536Z,97822.25
2023-06-19T16:58:18.802Z,97827.84
2023-06-19T17:00:45.811Z,97830.91
2023-06-19T17:03:14.077Z,97827.72
2023-06-19T17:05:41.160Z,97835.75
2023-06-19T17:08:08.399Z,97832.28
2023-06-19T17:10:35.363Z,97833.78
2023-06-19T17:13:03.001Z,97826.09
2023-06-19T17:15:31.849Z,97825.56
2023-06-19T17:18:00.338Z,97815.81
2023-06-19T17:20:28.476Z,97812.38
2023-06-19T17:22:56.777Z,97826.59
2023-06-19T17:25:23.900Z,97821.81
2023-06-19T17:27:50.840Z,97822.38
2023-06-19T17:30:17.940Z,97827.19
2023-06-19T17:32:45.880Z,97828.31
2023-06-19T17:35:13.342Z,97830.72
2023-06-19T17:37:40.659Z,97822.94
2023-06-19T17:40:13.979Z,97822.03
2023-06-19T17:42:41.946Z,97830.25
2023-06-19T17:45:10.412Z,97824.09
2023-06-19T17:47:37.497Z,97826.91
2023-06-19T17:50:05.039Z,97824.19
2023-06-19T17:52:32.018Z,97823.53
2023-06-19T17:54:59.096Z,97839.50
2023-06-19T17:57:27.267Z,97844.44
2023-06-19T17:59:55.406Z,97844.09
2023-06-19T18:02:22.736Z,97847.41
2023-06-19T18:04:49.984Z,97841.25
2023-06-19T18:07:18.698Z,97845.44
2023-06-19T18:09:49.821Z,97843.50
2023-06-19T18:12:18.282Z,97843.50
2023-06-19T18:14:45.502Z,97847.59
2023-06-19T18:17:13.070Z,97848.28
2023-06-19T18:19:40.730Z,97851.81
2023-06-19T18:22:07.766Z,97853.63
2023-06-19T18:24:34.859Z,97850.03
2023-06-19T18:27:02.065Z,97849.72
2023-06-19T18:29:31.744Z,97852.00
2023-06-19T18:31:59.140Z,97843.94
2023-06-19T18:34:26.206Z,97850.69
2023-06-19T18:36:53.243Z,97853.34
2023-06-19T18:39:20.340Z,97844.78
2023-06-19T18:41:48.051Z,97844.88
2023-06-19T18:44:15.669Z,97852.75
2023-06-19T18:46:42.936Z,97853.09
2023-06-19T18:49:10.544Z,97851.03
2023-06-19T18:51:37.533Z,97849.47
2023-06-19T18:54:04.781Z,97844.56
2023-06-19T18:56:31.890Z,97835.16
2023-06-19T18:58:58.911Z,97834.84
2023-06-19T19:01:26.274Z,97836.66
2023-06-19T19:03:53.369Z,97837.34
2023-06-19T19:06:20.659Z,97838.25
2023-06-19T19:08:47.779Z,97838.47
2023-06-19T19:11:15.098Z,97838.03
2023-06-19T19:13:42.157Z,97846.63
2023-06-19T19:16:09.189Z,97846.50
2023-06-19T19:18:36.188Z,97840.94
2023-06-19T19:21:03.280Z,97843.66
2023-06-19T19:23:30.287Z,97848.69
2023-06-19T19:25:57.389Z,97848.69
2023-06-19T19:28:24.423Z,97846.84
2023-06-19T19:30:51.787Z,97849.28
2023-06-19T19:33:18.902Z,97848.81
2023-06-19T19:35:46.664Z,97845.28
2023-06-19T19:38:16.066Z,97856.56
2023-06-19T19:40:43.644Z,97849.03
2023-06-19T19:43:13.384Z,97850.72
2023-06-19T19:45:41.077Z,97853.13
2023-06-19T19:48:08.197Z,97859.25
2023-06-19T19:50:35.278Z,97858.72
2023-06-19T19:53:02.292Z,97855.19
2023-06-19T19:55:29.431Z,97860.56
2023-06-19T19:57:59.668Z,97864.88
2023-06-19T20:00:26.920Z,97871.69
2023-06-19T20:02:54.299Z,97877.63
2023-06-19T20:05:21.392Z,97883.94
2023-06-19T20:07:48.389Z,97887.56
2023-06-19T20:10:15.470Z,97885.75
2023-06-19T20:12:42.619Z,97887.91
2023-06-19T20:15:10.453Z,97897.56
2023-06-19T20:17:37.741Z,97906.19
2023-06-19T20:20:06.778Z,97895.84
2023-06-19T20:22:34.045Z,97900.34
2023-06-19T20:25:01.203Z,97894.25
2023-06-19T20:27:28.334Z,97894.25
2023-06-19T20:29:55.530Z,97880.22
2023-06-19T20:32:22.877Z,97886.81
2023-06-19T20:34:50.050Z,97884.88
2023-06-19T20:37:17.074Z,97873.88
2023-06-19T20:39:44.318Z,97871.53
2023-06-19T20:42:11.368Z,97870.88
2023-06-19T20:44:38.369Z,97876.34
2023-06-19T20:47:05.795Z,97873.66
2023-06-19T20:49:32.819Z,97869.06
2023-06-19T20:51:59.786Z,97878.41
2023-06-19T20:54:26.744Z,97878.44
2023-06-19T20:56:53.722Z,97874.44
2023-06-19T20:59:20.909Z,97878.03
2023-06-19T21:01:47.900Z,97878.50
2023-06-19T21:04:14.955Z,97875.47
2023-06-19T21:06:42.091Z,97868.94
2023-06-19T21:09:09.558Z,97876.94
2023-06-19T21:11:36.827Z,97874.69
2023-06-19T21:14:03.970Z,97877.97
2023-06-19T21:16:31.246Z,97881.34
2023-06-19T21:18:58.381Z,97880.72
2023-06-19T21:21:25.581Z,97881.47
2023-06-19T21:23:52.615Z,97880.53
2023-06-19T21:26:19.740Z,97864.16
2023-06-19T21:28:46.738Z,97867.75
2023-06-19T21:31:16.276Z,97869.66
2023-06-19T21:33:43.268Z,97869.50
2023-06-19T21:36:10.580Z,97875.75
2023-06-19T21:38:37.671Z,97871.75
2023-06-19T21:41:04.772Z,97878.50
2023-06-19T21:43:31.957Z,97877.84
2023-06-19T21:45:59.656Z,97869.53
2023-06-19T21:48:27.334Z,97862.13
2023-06-19T21:50:54.976Z,97860.66
2023-06-19T21:53:22.851Z,97851.81
2023-06-19T21:55:50.016Z,97852.50
2023-06-19T21:58:17.071Z,97844.66
2023-06-19T22:00:44.135Z,97857.50
2023-06-19T22:03:11.389Z,97844.97
2023-06-19T22:05:38.536Z,97838.22
2023-06-19T22:08:05.694Z,97838.88
2023-06-19T22:10:33.368Z,97829.75
2023-06-19T22:13:00.504Z,97820.38
2023-06-19T22:15:27.654Z,97820.44
2023-06-19T22:17:54.762Z,97821.38
2023-06-19T22:20:21.921Z,97818.81
2023-06-19T22:22:49.564Z,97814.81
2023-06-19T22:25:17.379Z,97814.22
2023-06-19T22:27:46.482Z,97811.66
2023-06-19T22:30:15.299Z,97812.56
2023-06-19T22:32:42.951Z,97815.09
2023-06-19T22:35:10.264Z,97814.22
2023-06-19T22:37:38.546Z,97810.06
2023-06-19T22:40:08.856Z,97811.97
2023-06-19T22:42:39.162Z,97803.13
2023-06-19T22:45:15.143Z,97792.38
2023-06-19T22:47:42.333Z,97800.91
2023-06-19T22:50:11.384Z,97791.28
2023-06-19T22:52:38.965Z,97788.41
2023-06-19T22:55:06.889Z,97785.84
2023-06-19T22:57:38.015Z,97778.94
2023-06-19T23:00:14.610Z,97774.13
2023-06-19T23:02:43.768Z,97781.34
2023-06-19T23:05:12.442Z,97784.75
2023-06-19T23:07:40.288Z,97780.41
2023-06-19T23:10:11.009Z,97782.00
2023-06-19T23:12:38.920Z,97779.47
2023-06-19T23:15:10.034Z,97784.25
2023-06-19T23:17:37.244Z,97782.97
2023-06-19T23:20:12.406Z,97786.66
2023-06-19T23:22:40.840Z,97780.56
2023-06-19T23:25:08.922Z,97775.75
2023-06-19T23:27:38.611Z,97782.19
2023-06-19T23:30:06.683Z,97772.41
2023-06-19T23:32:34.071Z,97766.44
2023-06-19T23:35:01.078Z,97767.72
2023-06-19T23:37:28.198Z,97761.97
2023-06-19T23:39:55.215Z,97771.91
2023-06-19T23:42:22.258Z,97771.09
2023-06-19T23:44:49.346Z,97763.38
2023-06-19T23:47:16.290Z,97761.47
2023-06-19T23:49:44.278Z,97767.72
2023-06-19T23:52:11.369Z,97771.41
2023-06-19T23:54:38.353Z,97758.41
2023-06-19T23:57:08.717Z,97762.44
2023-06-19T23:59:36.135Z,97769.81
